Time;durP1;ratioP1;P1;durP2;ratioP2;P2;SDS_P1;SDS_P2;PMS_P1;PMS_P2;Temp;Humidity;BMP_temperature;BMP_pressure;BME280_temperature;BME280_humidity;BME280_pressure;Samples;Min_cycle;Max_cycle;Signal;HPM_P1;HPM_P2
2021/03/27 00:00:06;;;;;;;9.30;6.75;;;10.30;99.90;;;;;;8331728;28;20033;-61
2021/03/27 00:04:48;;;;;;;9.88;6.53;;;10.30;99.90;;;;;;8331029;28;20029;-62
2021/03/27 00:09:05;;;;;;;13.90;6.55;;;10.10;99.90;;;;;;8331045;28;20078;-61
2021/03/27 00:13:24;;;;;;;10.80;6.60;;;10.10;99.90;;;;;;8331053;28;20159;-62
2021/03/27 00:17:40;;;;;;;12.68;6.38;;;10.00;99.90;;;;;;8330561;28;20037;-62
2021/03/27 00:21:47;;;;;;;8.77;6.70;;;9.70;99.90;;;;;;8331281;28;20083;-62
2021/03/27 00:26:05;;;;;;;9.73;5.78;;;9.60;99.90;;;;;;8334031;28;20040;-62
2021/03/27 00:30:12;;;;;;;9.65;5.93;;;9.50;99.90;;;;;;8333207;28;20635;-62
2021/03/27 00:34:17;;;;;;;8.50;5.68;;;9.40;99.90;;;;;;8331771;28;20499;-63
2021/03/27 00:38:24;;;;;;;10.50;5.95;;;9.50;99.90;;;;;;8332956;28;20028;-62
2021/03/27 00:42:29;;;;;;;9.70;6.40;;;9.50;99.90;;;;;;8328719;28;20104;-62
2021/03/27 00:46:31;;;;;;;11.65;6.10;;;9.40;99.90;;;;;;8332568;28;20033;-62
2021/03/27 00:50:48;;;;;;;11.75;7.28;;;9.30;99.90;;;;;;8329745;28;20068;-62
2021/03/27 00:54:57;;;;;;;10.77;7.13;;;9.20;99.90;;;;;;8328903;28;20025;-62
2021/03/27 00:59:06;;;;;;;14.63;7.50;;;9.00;99.90;;;;;;8350568;28;20047;-62
2021/03/27 01:03:28;;;;;;;11.43;7.40;;;9.20;99.90;;;;;;8296364;28;20037;-62
2021/03/27 01:07:30;;;;;;;11.75;7.70;;;8.90;99.90;;;;;;8295351;28;20069;-62
2021/03/27 01:11:39;;;;;;;12.68;7.47;;;9.00;99.90;;;;;;8296306;28;20026;-62
2021/03/27 01:15:57;;;;;;;14.90;8.07;;;9.20;99.90;;;;;;8307019;28;20886;-62
2021/03/27 01:20:09;;;;;;;15.00;8.27;;;9.10;99.90;;;;;;8330091;28;20055;-62
2021/03/27 01:24:15;;;;;;;16.65;8.73;;;9.20;99.90;;;;;;8331913;28;20479;-62
2021/03/27 01:28:26;;;;;;;12.93;8.32;;;9.40;99.90;;;;;;8356831;28;20395;-62
2021/03/27 01:32:32;;;;;;;12.70;8.18;;;9.40;99.90;;;;;;8336973;28;20080;-63
2021/03/27 01:36:44;;;;;;;12.63;7.50;;;9.30;99.90;;;;;;8328267;28;20049;-62
2021/03/27 01:41:09;;;;;;;11.98;7.85;;;9.40;99.90;;;;;;8328914;28;20495;-62
2021/03/27 01:45:29;;;;;;;13.15;7.28;;;9.50;99.90;;;;;;8354509;28;20032;-62
2021/03/27 01:50:03;;;;;;;10.73;7.30;;;9.70;99.90;;;;;;8360754;28;20025;-62
2021/03/27 01:54:09;;;;;;;13.43;7.15;;;9.60;99.90;;;;;;8342733;28;20033;-62
2021/03/27 01:58:22;;;;;;;10.00;6.82;;;9.70;99.90;;;;;;8360696;28;20434;-62
2021/03/27 02:02:28;;;;;;;11.18;6.78;;;9.60;99.90;;;;;;8360381;28;20475;-62
2021/03/27 02:06:47;;;;;;;11.30;6.72;;;9.60;99.90;;;;;;8297439;28;20025;-62
2021/03/27 02:11:22;;;;;;;10.02;6.60;;;9.60;99.90;;;;;;8338336;28;20037;-62
2021/03/27 02:15:47;;;;;;;12.02;6.88;;;9.40;99.90;;;;;;8327570;28;20021;-62
2021/03/27 02:20:07;;;;;;;10.70;6.68;;;9.50;99.90;;;;;;8327907;28;20108;-63
2021/03/27 02:24:22;;;;;;;9.60;5.90;;;9.40;99.90;;;;;;8322348;28;20025;-62
2021/03/27 02:29:04;;;;;;;8.40;5.82;;;9.30;99.90;;;;;;8333405;28;20479;-62
2021/03/27 02:33:33;;;;;;;8.83;6.27;;;9.30;99.90;;;;;;8326955;28;20037;-62
2021/03/27 02:37:44;;;;;;;9.80;5.65;;;9.10;99.90;;;;;;8302925;28;20109;-62
2021/03/27 02:42:05;;;;;;;8.23;5.05;;;9.30;99.90;;;;;;8292925;28;20114;-62
2021/03/27 02:46:25;;;;;;;8.95;5.18;;;9.30;99.90;;;;;;8293946;28;20029;-61
2021/03/27 02:51:07;;;;;;;9.27;5.03;;;9.20;99.90;;;;;;8294244;28;20496;-62
2021/03/27 02:55:52;;;;;;;9.90;5.28;;;9.20;99.90;;;;;;8300704;28;20033;-62
2021/03/27 03:00:06;;;;;;;7.72;4.00;;;9.20;99.90;;;;;;8284489;28;20052;-62
2021/03/27 03:04:06;;;;;;;6.97;4.22;;;9.10;99.90;;;;;;8358860;28;20041;-62
2021/03/27 03:08:15;;;;;;;6.00;4.13;;;9.10;99.90;;;;;;8346355;28;20095;-62
2021/03/27 03:12:24;;;;;;;7.75;4.18;;;9.00;99.90;;;;;;8326102;28;20083;-62
2021/03/27 03:16:41;;;;;;;5.20;3.60;;;9.00;99.90;;;;;;8327414;28;20026;-61
2021/03/27 03:21:00;;;;;;;5.10;3.70;;;9.00;99.90;;;;;;8335366;28;20036;-61
2021/03/27 03:25:14;;;;;;;5.85;4.18;;;8.90;99.90;;;;;;8336268;28;20041;-61
2021/03/27 03:29:23;;;;;;;6.85;4.15;;;8.80;99.90;;;;;;8341715;28;20087;-61
2021/03/27 03:33:45;;;;;;;6.25;4.43;;;8.70;99.90;;;;;;8331757;28;20048;-62
2021/03/27 03:38:18;;;;;;;3.35;2.60;;;8.70;99.90;;;;;;8332100;28;20029;-61
2021/03/27 03:42:56;;;;;;;5.68;3.28;;;8.70;99.90;;;;;;8328061;28;20032;-61
2021/03/27 03:47:13;;;;;;;4.07;2.83;;;8.60;99.90;;;;;;8224191;28;20128;-61
2021/03/27 03:51:25;;;;;;;4.07;2.70;;;8.50;99.90;;;;;;8334338;28;20104;-61
2021/03/27 03:55:49;;;;;;;3.30;2.30;;;8.50;99.90;;;;;;8336777;28;20045;-62
2021/03/27 04:00:08;;;;;;;1.55;1.17;;;8.50;99.90;;;;;;8344772;28;20065;-62
2021/03/27 04:04:11;;;;;;;2.13;1.42;;;8.50;99.90;;;;;;8330969;28;20041;-62
2021/03/27 04:08:48;;;;;;;2.75;1.65;;;8.50;99.90;;;;;;8331077;28;20029;-61
2021/03/27 04:13:08;;;;;;;7.20;2.85;;;8.50;99.90;;;;;;8315101;28;20388;-62
2021/03/27 04:17:18;;;;;;;5.00;3.28;;;8.40;99.90;;;;;;8298006;28;20041;-61
2021/03/27 04:21:49;;;;;;;7.00;3.75;;;8.20;99.90;;;;;;8297862;28;20026;-61
2021/03/27 04:26:04;;;;;;;4.85;2.90;;;8.00;99.90;;;;;;8303594;28;20424;-61
2021/03/27 04:30:28;;;;;;;343.95;306.77;;;8.00;99.90;;;;;;8331069;28;20069;-62
2021/03/27 04:34:49;;;;;;;2.38;1.73;;;8.00;99.90;;;;;;8348785;28;20147;-60
2021/03/27 04:38:58;;;;;;;3.05;2.13;;;8.00;99.90;;;;;;8343953;28;20025;-61
2021/03/27 04:43:21;;;;;;;3.30;1.52;;;8.00;99.90;;;;;;8332547;28;20025;-62
2021/03/27 04:47:31;;;;;;;0.75;0.65;;;7.90;99.90;;;;;;8297311;28;20392;-62
2021/03/27 04:51:41;;;;;;;2.13;1.40;;;7.90;99.90;;;;;;8297134;28;20030;-61
2021/03/27 04:56:16;;;;;;;1.88;1.48;;;7.90;99.90;;;;;;8313271;28;20029;-62
2021/03/27 05:00:50;;;;;;;1.25;0.70;;;7.90;99.90;;;;;;8362341;28;20573;-62
2021/03/27 05:04:59;;;;;;;1.80;1.17;;;8.00;99.90;;;;;;8360843;28;20162;-62
2021/03/27 05:09:11;;;;;;;2.58;1.80;;;8.00;99.90;;;;;;8361092;28;20039;-62
2021/03/27 05:13:34;;;;;;;2.00;1.35;;;8.00;99.90;;;;;;8360760;28;20083;-62
2021/03/27 05:17:44;;;;;;;1.73;1.20;;;8.00;99.90;;;;;;8339725;28;20037;-62
2021/03/27 05:22:07;;;;;;;2.10;1.47;;;8.00;99.90;;;;;;8329111;28;20026;-61
2021/03/27 05:26:46;;;;;;;3.38;1.83;;;8.00;99.90;;;;;;8339968;28;20412;-62
2021/03/27 05:31:24;;;;;;;2.33;0.85;;;7.90;99.90;;;;;;8327689;28;20045;-62
2021/03/27 05:35:38;;;;;;;3.38;1.63;;;7.90;99.90;;;;;;8335139;28;20109;-62
2021/03/27 05:40:26;;;;;;;2.90;2.10;;;7.90;99.90;;;;;;8326258;28;20033;-61
2021/03/27 05:45:00;;;;;;;5.35;2.22;;;7.90;99.90;;;;;;8316646;28;20065;-62
2021/03/27 05:49:19;;;;;;;4.10;2.40;;;7.80;99.90;;;;;;8332504;28;20066;-61
2021/03/27 05:53:41;;;;;;;2.47;1.73;;;7.80;99.90;;;;;;8327732;28;20025;-61
2021/03/27 05:58:12;;;;;;;2.30;1.38;;;7.80;99.90;;;;;;8330381;28;20044;-62
2021/03/27 06:02:32;;;;;;;5.10;2.28;;;7.80;99.90;;;;;;8325973;28;20452;-62
2021/03/27 06:07:26;;;;;;;1.73;1.20;;;7.80;99.90;;;;;;8326751;28;20059;-62
2021/03/27 06:11:46;;;;;;;1.50;0.63;;;7.40;99.90;;;;;;8317551;28;20063;-62
2021/03/27 06:16:14;;;;;;;1.13;0.47;;;6.30;99.90;;;;;;8327836;28;20071;-62
2021/03/27 06:20:49;;;;;;;1.00;0.57;;;5.90;99.90;;;;;;8324539;28;20041;-61
2021/03/27 06:25:11;;;;;;;0.57;0.50;;;5.70;99.90;;;;;;8332285;28;20041;-62
2021/03/27 06:29:29;;;;;;;1.70;0.57;;;5.70;99.90;;;;;;8350458;28;20037;-61
2021/03/27 06:34:00;;;;;;;1.20;0.50;;;5.70;99.90;;;;;;8359647;28;20078;-61
2021/03/27 06:38:28;;;;;;;1.40;0.70;;;5.80;99.90;;;;;;8359948;28;20025;-61
2021/03/27 06:42:46;;;;;;;2.90;0.60;;;5.80;99.90;;;;;;8359454;28;20033;-62
2021/03/27 06:47:24;;;;;;;0.50;0.43;;;5.90;99.90;;;;;;8359525;28;20021;-62
2021/03/27 06:51:40;;;;;;;1.67;0.60;;;6.00;99.90;;;;;;8360420;28;20079;-62
2021/03/27 06:55:54;;;;;;;1.77;0.98;;;6.10;99.90;;;;;;8332053;28;20022;-62
2021/03/27 07:00:19;;;;;;;2.88;1.20;;;6.20;99.90;;;;;;8333053;28;20060;-62
2021/03/27 07:04:28;;;;;;;1.00;0.30;;;6.30;99.90;;;;;;8329646;28;20076;-63
2021/03/27 07:08:40;;;;;;;1.60;0.38;;;6.40;99.90;;;;;;8336168;28;20084;-62
2021/03/27 07:12:59;;;;;;;2.20;0.30;;;6.40;99.90;;;;;;8328033;28;20096;-62
2021/03/27 07:17:37;;;;;;;0.60;0.40;;;6.30;99.90;;;;;;8334095;28;20084;-62
2021/03/27 07:21:52;;;;;;;0.25;0.25;;;6.30;99.90;;;;;;8285967;28;20037;-62
2021/03/27 07:26:10;;;;;;;0.70;0.40;;;6.40;99.90;;;;;;8328171;28;20049;-62
2021/03/27 07:30:30;;;;;;;0.47;0.47;;;6.40;99.90;;;;;;8330184;28;20021;-62
2021/03/27 07:35:15;;;;;;;2.20;0.43;;;6.30;99.90;;;;;;8329283;28;20033;-62
2021/03/27 07:39:35;;;;;;;0.90;0.47;;;6.40;99.90;;;;;;8322629;28;20041;-62
2021/03/27 07:44:03;;;;;;;0.65;0.50;;;6.40;99.90;;;;;;8331248;28;20029;-62
2021/03/27 07:48:26;;;;;;;1.88;0.47;;;6.40;99.90;;;;;;8329664;28;20316;-62
2021/03/27 07:53:12;;;;;;;1.50;1.02;;;6.40;99.90;;;;;;8327366;28;20033;-62
2021/03/27 07:57:17;;;;;;;0.75;0.40;;;6.40;99.90;;;;;;8328837;28;20025;-62
2021/03/27 08:01:29;;;;;;;0.73;0.50;;;6.30;99.90;;;;;;8329884;28;20395;-63
2021/03/27 08:06:07;;;;;;;0.70;0.35;;;6.30;99.90;;;;;;8327920;28;20389;-62
2021/03/27 08:10:33;;;;;;;1.10;0.50;;;6.30;99.90;;;;;;8327794;28;20537;-62
2021/03/27 08:15:03;;;;;;;1.00;0.20;;;6.30;99.90;;;;;;8328920;28;20030;-62
2021/03/27 08:19:30;;;;;;;1.25;0.82;;;6.40;99.90;;;;;;8324823;28;20056;-62
2021/03/27 08:23:36;;;;;;;0.40;0.30;;;6.50;99.90;;;;;;8329902;28;20021;-63
2021/03/27 08:27:56;;;;;;;2.47;0.88;;;6.70;99.90;;;;;;8332951;28;20040;-62
2021/03/27 08:32:18;;;;;;;1.25;0.68;;;6.70;99.90;;;;;;8338616;28;20081;-63
2021/03/27 08:36:37;;;;;;;1.70;0.57;;;6.70;99.90;;;;;;8332096;28;20021;-62
2021/03/27 08:41:11;;;;;;;0.43;0.40;;;7.00;99.90;;;;;;8321320;28;20037;-62
2021/03/27 08:45:49;;;;;;;0.80;0.38;;;7.20;99.90;;;;;;8322147;28;20040;-63
2021/03/27 08:50:15;;;;;;;2.58;0.50;;;7.10;99.90;;;;;;8326235;28;20396;-62
2021/03/27 08:54:45;;;;;;;0.50;0.35;;;7.10;99.90;;;;;;8325141;28;20559;-62
2021/03/27 08:59:10;;;;;;;1.23;0.40;;;7.20;99.90;;;;;;8330570;28;20029;-62
2021/03/27 09:03:25;;;;;;;0.82;0.45;;;7.30;99.90;;;;;;8326727;28;20032;-63
2021/03/27 09:07:58;;;;;;;2.35;0.60;;;7.30;99.90;;;;;;8329744;28;20628;-65
2021/03/27 09:12:36;;;;;;;1.02;0.50;;;8.00;99.90;;;;;;8316727;28;20030;-63
2021/03/27 09:16:58;;;;;;;1.17;0.57;;;8.30;99.90;;;;;;8314954;28;20742;-63
2021/03/27 09:21:27;;;;;;;1.10;0.47;;;8.90;99.90;;;;;;8327075;28;20507;-63
2021/03/27 09:26:05;;;;;;;0.63;0.50;;;9.20;99.90;;;;;;8325948;28;20041;-63
2021/03/27 09:30:13;;;;;;;1.05;0.55;;;9.00;99.90;;;;;;8324090;28;20029;-63
2021/03/27 09:34:23;;;;;;;2.55;0.60;;;8.90;99.90;;;;;;8317155;28;20078;-63
2021/03/27 09:38:42;;;;;;;0.70;0.47;;;9.50;99.90;;;;;;8309818;28;20516;-62
2021/03/27 09:43:01;;;;;;;13.52;12.05;;;9.30;99.90;;;;;;8311752;28;20427;-63
2021/03/27 09:47:25;;;;;;;0.73;0.35;;;9.30;99.90;;;;;;8311488;28;20080;-63
2021/03/27 09:51:47;;;;;;;9.15;5.97;;;9.10;99.90;;;;;;8310088;28;20029;-64
2021/03/27 09:56:00;;;;;;;0.50;0.50;;;9.40;99.90;;;;;;8313694;28;20038;-64
2021/03/27 10:00:20;;;;;;;0.43;0.40;;;9.50;99.90;;;;;;8321253;28;20026;-63
2021/03/27 10:04:48;;;;;;;0.28;0.28;;;9.70;99.90;;;;;;8320552;28;20861;-64
2021/03/27 10:09:09;;;;;;;1.27;0.43;;;10.10;99.90;;;;;;8321224;28;20059;-64
2021/03/27 10:13:54;;;;;;;0.90;0.30;;;10.40;99.90;;;;;;8317067;28;20606;-64
2021/03/27 10:18:27;;;;;;;0.30;0.30;;;10.20;99.90;;;;;;8317259;28;20033;-65
2021/03/27 10:23:08;;;;;;;1.05;0.45;;;10.40;99.90;;;;;;8311595;28;20294;-64
2021/03/27 10:27:41;;;;;;;0.77;0.32;;;10.00;99.90;;;;;;8317617;28;20439;-63
2021/03/27 10:31:47;;;;;;;0.73;0.50;;;9.90;99.90;;;;;;8318882;28;20395;-64
2021/03/27 10:35:54;;;;;;;1.15;0.60;;;9.90;99.90;;;;;;8324026;28;20373;-64
2021/03/27 10:40:17;;;;;;;2.13;0.60;;;10.10;99.90;;;;;;8319728;28;20096;-63
2021/03/27 10:44:43;;;;;;;1.55;0.60;;;10.30;99.90;;;;;;8319942;28;20030;-64
2021/03/27 10:49:11;;;;;;;0.30;0.30;;;10.50;99.90;;;;;;8331531;28;20021;-64
2021/03/27 10:53:41;;;;;;;1.08;0.50;;;10.30;98.50;;;;;;8325559;28;20029;-64
2021/03/27 10:58:11;;;;;;;1.80;0.65;;;10.20;99.90;;;;;;8325830;28;20025;-64
2021/03/27 11:02:49;;;;;;;0.55;0.40;;;10.20;98.60;;;;;;8326235;28;20033;-64
2021/03/27 11:07:27;;;;;;;1.10;0.40;;;10.10;97.80;;;;;;8334936;28;20452;-64
2021/03/27 11:11:33;;;;;;;3.08;0.40;;;9.80;97.60;;;;;;8345455;28;20036;-64
2021/03/27 11:15:46;;;;;;;6.22;4.57;;;9.50;97.80;;;;;;8358912;28;20029;-64
2021/03/27 11:20:08;;;;;;;0.65;0.40;;;9.80;97.50;;;;;;8358857;28;20515;-64
2021/03/27 11:24:48;;;;;;;2.97;0.93;;;11.10;94.20;;;;;;8356829;28;20021;-64
2021/03/27 11:28:59;;;;;;;120.43;110.60;;;10.60;96.30;;;;;;8293485;28;20022;-64
2021/03/27 11:33:31;;;;;;;0.60;0.47;;;10.30;97.80;;;;;;8323206;28;20039;-64
2021/03/27 11:37:38;;;;;;;2.17;0.45;;;10.70;96.00;;;;;;8297972;28;20049;-64
2021/03/27 11:42:23;;;;;;;0.77;0.40;;;10.20;95.40;;;;;;8320191;28;20029;-63
2021/03/27 11:46:34;;;;;;;0.52;0.30;;;;;;;;;;8226656;28;20413;-64
2021/03/27 11:50:47;;;;;;;8.20;7.40;;;;;;;;;;8277668;28;20029;-63
2021/03/27 11:54:52;;;;;;;0.68;0.52;;;11.50;99.90;;;;;;8323701;28;20053;-64
2021/03/27 12:03:34;;;;;;;0.93;0.50;;;11.90;99.90;;;;;;8330440;28;20088;-64
2021/03/27 12:08:15;;;;;;;2.35;0.70;;;12.00;80.50;;;;;;8337596;28;20025;-64
2021/03/27 12:12:30;;;;;;;1.50;0.50;;;12.40;77.80;;;;;;8327268;28;20029;-64
2021/03/27 12:16:45;;;;;;;10.90;0.90;;;11.80;99.50;;;;;;8327182;28;20084;-63
2021/03/27 12:21:06;;;;;;;1.08;0.60;;;;;;;;;;8345314;28;20042;-63
2021/03/27 12:25:28;;;;;;;;;;;14.00;99.90;;;;;;8331547;28;20103;-64
2021/03/27 12:29:35;;;;;;;0.77;0.40;;;;;;;;;;8328034;28;20397;-64
2021/03/27 12:33:55;;;;;;;0.90;0.50;;;18.40;93.60;;;;;;8324708;28;20037;-65
2021/03/27 12:38:13;;;;;;;1.27;0.60;;;15.30;63.60;;;;;;8334208;28;20076;-64
2021/03/27 12:42:22;;;;;;;0.65;0.52;;;15.30;57.90;;;;;;8333560;28;20021;-63
2021/03/27 12:46:43;;;;;;;2.47;0.60;;;15.90;55.70;;;;;;8332681;28;20029;-64
2021/03/27 12:50:56;;;;;;;0.68;0.57;;;18.20;52.90;;;;;;8325883;28;20025;-64
2021/03/27 12:54:57;;;;;;;0.47;0.40;;;18.70;49.30;;;;;;8324125;28;20053;-64
2021/03/27 12:59:22;;;;;;;63.97;58.90;;;15.40;55.30;;;;;;8324771;28;20021;-64
2021/03/27 13:03:41;;;;;;;2.25;0.50;;;14.60;56.80;;;;;;8328712;28;20017;-63
2021/03/27 13:07:48;;;;;;;71.00;65.53;;;13.70;59.10;;;;;;8323795;28;20029;-63
2021/03/27 13:11:54;;;;;;;5.65;0.65;;;13.50;60.00;;;;;;8325028;28;20030;-63
2021/03/27 13:16:22;;;;;;;1.90;1.65;;;12.20;62.00;;;;;;8332189;28;20029;-64
2021/03/27 13:20:56;;;;;;;2.53;0.60;;;11.60;63.80;;;;;;8324403;28;20112;-63
2021/03/27 13:25:18;;;;;;;0.32;0.30;;;11.30;64.30;;;;;;8324736;28;20137;-64
2021/03/27 13:29:47;;;;;;;1.33;0.63;;;11.50;63.50;;;;;;8320446;28;20022;-65
2021/03/27 13:34:16;;;;;;;2.70;0.55;;;12.80;67.30;;;;;;8325840;28;20407;-65
2021/03/27 13:38:48;;;;;;;0.65;0.47;;;14.80;57.50;;;;;;8328732;28;20029;-64
2021/03/27 13:43:02;;;;;;;0.60;0.50;;;17.00;50.00;;;;;;8317185;28;20096;-65
2021/03/27 13:47:21;;;;;;;0.45;0.40;;;14.50;56.20;;;;;;8325748;28;20116;-65
2021/03/27 13:51:27;;;;;;;2.88;0.70;;;14.60;58.60;;;;;;8325309;28;20491;-64
2021/03/27 13:55:34;;;;;;;2.17;0.50;;;13.60;60.40;;;;;;8328942;28;20030;-65
2021/03/27 13:59:44;;;;;;;1.08;0.52;;;12.40;61.90;;;;;;8332833;28;20133;-65
2021/03/27 14:04:11;;;;;;;1.70;0.90;;;11.80;63.30;;;;;;8322084;28;20507;-64
2021/03/27 14:08:28;;;;;;;0.70;0.40;;;11.50;63.50;;;;;;8322387;28;20021;-65
2021/03/27 14:12:35;;;;;;;1.52;0.70;;;12.00;65.50;;;;;;8318534;28;20029;-65
2021/03/27 14:16:42;;;;;;;3.35;0.70;;;12.20;61.90;;;;;;8320778;28;20389;-65
2021/03/27 14:21:12;;;;;;;1.67;0.60;;;11.90;62.90;;;;;;8320476;28;20021;-64
2021/03/27 14:25:49;;;;;;;1.60;0.60;;;11.60;64.40;;;;;;8323977;28;20400;-64
2021/03/27 14:30:07;;;;;;;1.75;0.45;;;11.30;64.70;;;;;;8325435;28;20041;-64
2021/03/27 14:34:26;;;;;;;1.92;0.73;;;12.50;60.80;;;;;;8328598;28;20503;-64
2021/03/27 14:39:17;;;;;;;4.05;1.13;;;11.70;63.70;;;;;;8320840;28;20029;-65
2021/03/27 14:43:31;;;;;;;1.65;0.80;;;11.40;66.10;;;;;;8321883;28;20435;-64
2021/03/27 14:47:50;;;;;;;1.40;0.65;;;11.20;64.10;;;;;;8322497;28;20065;-64
2021/03/27 14:52:05;;;;;;;2.33;0.70;;;11.50;65.80;;;;;;8324608;28;20082;-64
2021/03/27 14:56:32;;;;;;;0.98;0.52;;;11.30;63.60;;;;;;8323211;28;20100;-64
2021/03/27 15:01:00;;;;;;;1.33;0.50;;;11.90;63.60;;;;;;8314344;28;20101;-64
2021/03/27 15:05:23;;;;;;;1.63;0.65;;;16.10;53.10;;;;;;8317375;28;20068;-64
2021/03/27 15:10:00;;;;;;;2.35;2.15;;;19.10;48.10;;;;;;8321634;28;20029;-64
2021/03/27 15:14:24;;;;;;;1.55;0.75;;;17.10;48.40;;;;;;8323630;28;20072;-64
2021/03/27 15:18:42;;;;;;;1.02;0.52;;;16.40;49.50;;;;;;8310405;28;20495;-64
2021/03/27 15:22:42;;;;;;;1.17;0.65;;;15.90;50.10;;;;;;8335131;28;20624;-63
2021/03/27 15:27:18;;;;;;;1.65;0.68;;;15.20;53.70;;;;;;8330185;28;20075;-63
2021/03/27 15:31:26;;;;;;;1.13;0.50;;;14.30;53.60;;;;;;8330629;28;20025;-63
2021/03/27 15:35:38;;;;;;;2.20;0.50;;;12.70;57.10;;;;;;8325485;28;20501;-63
2021/03/27 15:40:13;;;;;;;6.03;1.60;;;11.70;58.30;;;;;;8332156;28;20030;-63
2021/03/27 15:44:31;;;;;;;1.83;0.40;;;11.00;59.80;;;;;;8325224;28;20052;-63
2021/03/27 15:48:32;;;;;;;3.60;0.57;;;10.50;64.80;;;;;;8328961;28;20053;-63
2021/03/27 15:52:50;;;;;;;2.03;0.73;;;10.10;66.60;;;;;;8327950;28;20040;-63
2021/03/27 15:56:59;;;;;;;2.50;0.88;;;10.40;68.20;;;;;;8331629;28;20116;-63
2021/03/27 16:01:33;;;;;;;1.27;0.50;;;10.80;67.30;;;;;;8330642;28;20029;-63
2021/03/27 16:05:36;;;;;;;0.82;0.50;;;11.10;66.70;;;;;;8327152;28;20029;-63
2021/03/27 16:10:02;;;;;;;3.50;0.50;;;11.10;64.70;;;;;;8329642;28;20024;-62
2021/03/27 16:14:12;;;;;;;1.85;0.60;;;11.00;64.60;;;;;;8326258;28;20431;-64
2021/03/27 16:18:37;;;;;;;1.17;0.57;;;11.00;65.30;;;;;;8330104;28;20104;-65
2021/03/27 16:22:53;;;;;;;2.78;0.80;;;11.90;64.60;;;;;;8325227;28;20029;-64
2021/03/27 16:27:17;;;;;;;1.02;0.52;;;11.50;59.80;;;;;;8320424;28;20030;-64
2021/03/27 16:31:51;;;;;;;1.05;0.40;;;10.90;62.40;;;;;;8323291;28;20033;-64
2021/03/27 16:35:55;;;;;;;2.35;0.55;;;10.30;63.60;;;;;;8321721;28;20109;-64
2021/03/27 16:40:15;;;;;;;0.95;0.50;;;10.00;65.20;;;;;;8317468;28;20026;-64
2021/03/27 16:44:50;;;;;;;2.40;0.80;;;9.90;64.70;;;;;;8314593;28;20044;-64
2021/03/27 16:49:13;;;;;;;1.80;0.70;;;9.90;67.80;;;;;;8315991;28;20045;-64
2021/03/27 16:53:31;;;;;;;1.15;0.82;;;9.50;69.20;;;;;;8317240;28;20044;-63
2021/03/27 16:58:04;;;;;;;2.15;0.88;;;9.30;70.30;;;;;;8310998;28;20037;-63
2021/03/27 17:02:56;;;;;;;1.08;0.68;;;9.00;72.30;;;;;;8321556;28;20026;-62
2021/03/27 17:07:18;;;;;;;1.67;0.95;;;9.10;73.90;;;;;;8299373;28;20061;-63
2021/03/27 17:11:46;;;;;;;1.30;0.60;;;9.10;72.90;;;;;;8327289;28;20064;-63
2021/03/27 17:16:04;;;;;;;2.78;0.90;;;9.10;72.90;;;;;;8332067;28;20068;-64
2021/03/27 17:20:29;;;;;;;1.60;0.70;;;9.00;75.20;;;;;;8318864;28;20041;-63
2021/03/27 17:24:44;;;;;;;2.13;0.73;;;8.80;73.90;;;;;;8314684;28;20025;-63
2021/03/27 17:28:56;;;;;;;2.45;0.80;;;8.80;74.90;;;;;;8322733;28;20025;-64
2021/03/27 17:33:34;;;;;;;4.00;0.90;;;8.60;74.60;;;;;;8321675;28;20037;-63
2021/03/27 17:37:47;;;;;;;1.92;0.88;;;8.50;75.70;;;;;;8319578;28;20067;-63
2021/03/27 17:42:09;;;;;;;2.35;1.00;;;8.20;76.70;;;;;;8331856;28;20028;-64
2021/03/27 17:46:39;;;;;;;2.03;0.80;;;8.20;77.40;;;;;;8324311;28;20095;-64
2021/03/27 17:50:41;;;;;;;1.92;0.70;;;8.00;79.40;;;;;;8314235;28;20036;-64
2021/03/27 17:55:07;;;;;;;2.25;0.68;;;7.80;80.00;;;;;;8321742;28;20049;-63
2021/03/27 17:59:25;;;;;;;2.05;0.90;;;7.60;81.50;;;;;;8319609;28;20154;-64
2021/03/27 18:03:46;;;;;;;3.80;1.38;;;7.60;83.50;;;;;;8305807;28;20156;-64
2021/03/27 18:07:52;;;;;;;2.22;1.45;;;7.50;85.50;;;;;;8303106;28;20824;-64
2021/03/27 18:12:22;;;;;;;6.78;2.75;;;7.30;85.50;;;;;;8306088;28;20037;-65
2021/03/27 18:16:29;;;;;;;6.07;1.73;;;7.30;87.20;;;;;;8288281;28;20120;-65
2021/03/27 18:20:41;;;;;;;4.88;1.77;;;7.00;90.30;;;;;;8306268;28;20025;-64
2021/03/27 18:24:57;;;;;;;5.30;1.67;;;6.70;92.50;;;;;;8304210;28;20490;-65
2021/03/27 18:29:07;;;;;;;3.92;1.10;;;6.60;93.10;;;;;;8310066;28;20588;-65
2021/03/27 18:33:19;;;;;;;1.30;0.80;;;6.40;94.10;;;;;;8310749;28;20578;-65
2021/03/27 18:37:31;;;;;;;3.60;0.90;;;6.30;94.50;;;;;;8309491;28;20620;-65
2021/03/27 18:41:39;;;;;;;2.08;0.60;;;6.40;95.70;;;;;;8318167;28;20025;-65
2021/03/27 18:45:44;;;;;;;3.92;1.20;;;6.50;95.20;;;;;;8331207;28;20825;-65
2021/03/27 18:49:48;;;;;;;3.42;0.90;;;6.40;94.80;;;;;;8319310;28;20078;-65
2021/03/27 18:54:10;;;;;;;3.42;0.90;;;6.30;96.60;;;;;;8319200;28;20025;-65
2021/03/27 18:58:11;;;;;;;4.90;1.10;;;6.20;99.20;;;;;;8322599;28;20051;-64
2021/03/27 19:02:18;;;;;;;4.25;1.00;;;6.20;99.90;;;;;;8334825;28;20043;-65
2021/03/27 19:06:19;;;;;;;3.58;0.90;;;5.70;99.90;;;;;;8321419;28;20022;-64
2021/03/27 19:10:27;;;;;;;2.63;0.80;;;5.70;99.90;;;;;;8321452;28;20112;-65
2021/03/27 19:14:34;;;;;;;2.83;1.40;;;5.70;99.90;;;;;;8321462;28;20025;-65
2021/03/27 19:18:41;;;;;;;4.32;1.60;;;5.70;99.90;;;;;;8321348;28;20040;-65
2021/03/27 19:23:16;;;;;;;6.45;2.95;;;5.70;99.90;;;;;;8322148;28;20025;-65
2021/03/27 19:27:25;;;;;;;2.35;1.30;;;5.60;99.90;;;;;;8328058;28;20115;-64
2021/03/27 19:31:28;;;;;;;15.87;5.80;;;5.80;99.90;;;;;;8330235;28;20495;-64
2021/03/27 19:35:36;;;;;;;4.82;2.72;;;5.90;99.90;;;;;;8332175;28;20047;-64
2021/03/27 19:40:09;;;;;;;3.72;2.10;;;6.00;99.90;;;;;;8317990;28;20163;-65
2021/03/27 19:44:54;;;;;;;3.65;1.02;;;5.80;99.90;;;;;;8287742;28;20088;-64
2021/03/27 19:49:22;;;;;;;1.40;0.90;;;6.00;99.90;;;;;;8305830;28;20675;-64
2021/03/27 19:53:43;;;;;;;2.22;0.98;;;6.30;99.90;;;;;;8312420;28;20034;-65
2021/03/27 19:57:49;;;;;;;;;;;6.40;99.90;;;;;;8317712;28;20022;-64
2021/03/27 20:01:52;;;;;;;2.65;0.82;;;6.70;99.90;;;;;;8326514;28;19912;-65
2021/03/27 20:06:24;;;;;;;4.47;1.15;;;6.60;99.90;;;;;;8325861;28;20025;-64
2021/03/27 20:10:45;;;;;;;3.60;1.05;;;6.60;99.90;;;;;;8314634;28;20045;-64
2021/03/27 20:14:51;;;;;;;2.50;1.00;;;6.40;99.90;;;;;;8324741;28;20029;-65
2021/03/27 20:18:58;;;;;;;4.47;1.20;;;6.20;99.90;;;;;;8322983;28;20087;-65
2021/03/27 20:23:05;;;;;;;4.18;1.30;;;5.80;99.90;;;;;;8326166;28;20013;-65
2021/03/27 20:27:27;;;;;;;2.97;1.10;;;6.10;99.90;;;;;;8326022;28;20030;-65
2021/03/27 20:31:52;;;;;;;2.42;1.10;;;5.70;99.90;;;;;;8326212;28;20022;-65
2021/03/27 20:35:55;;;;;;;2.58;0.98;;;5.50;99.90;;;;;;8325601;28;20022;-65
2021/03/27 20:40:24;;;;;;;2.90;0.88;;;5.20;99.90;;;;;;8323249;28;20522;-64
2021/03/27 20:44:42;;;;;;;2.10;1.10;;;5.00;99.90;;;;;;8323897;28;20553;-64
2021/03/27 20:49:04;;;;;;;4.90;2.47;;;4.80;99.90;;;;;;8325132;28;20028;-65
2021/03/27 20:53:30;;;;;;;4.68;2.00;;;4.80;99.90;;;;;;8324053;28;20041;-64
2021/03/27 20:57:36;;;;;;;6.90;1.80;;;4.60;99.90;;;;;;8322921;28;20159;-65
2021/03/27 21:01:45;;;;;;;6.35;1.65;;;4.50;99.90;;;;;;8324123;28;20022;-66
2021/03/27 21:05:48;;;;;;;3.63;1.25;;;4.50;99.90;;;;;;8318630;28;20032;-64
2021/03/27 21:10:07;;;;;;;3.10;1.23;;;4.50;99.90;;;;;;8316877;28;20055;-65
2021/03/27 21:14:24;;;;;;;7.78;1.52;;;4.70;99.90;;;;;;8336857;28;20037;-64
2021/03/27 21:18:28;;;;;;;8.48;3.08;;;4.60;99.90;;;;;;8316238;28;20079;-65
2021/03/27 21:22:57;;;;;;;19.10;7.68;;;4.70;99.90;;;;;;8313776;28;20088;-65
2021/03/27 21:27:30;;;;;;;19.38;8.18;;;4.70;99.90;;;;;;8324609;28;20096;-64
2021/03/27 21:31:38;;;;;;;12.27;5.63;;;4.50;99.90;;;;;;8313171;28;20065;-65
2021/03/27 21:35:55;;;;;;;7.65;3.03;;;4.70;99.90;;;;;;8322726;28;20060;-64
2021/03/27 21:40:19;;;;;;;6.47;3.05;;;4.70;99.90;;;;;;8322910;28;20117;-64
2021/03/27 21:44:22;;;;;;;4.50;1.30;;;4.50;99.90;;;;;;8325846;28;20033;-65
2021/03/27 21:48:47;;;;;;;4.07;1.60;;;4.40;99.90;;;;;;8323047;28;20029;-65
2021/03/27 21:53:09;;;;;;;3.38;1.58;;;4.50;99.90;;;;;;8324675;28;20034;-65
2021/03/27 21:57:42;;;;;;;4.70;2.13;;;4.60;99.90;;;;;;8324753;28;20033;-64
2021/03/27 22:01:48;;;;;;;5.07;2.25;;;4.50;99.90;;;;;;8318139;28;20405;-64
2021/03/27 22:06:04;;;;;;;8.00;3.78;;;4.40;99.90;;;;;;8337434;28;20101;-64
2021/03/27 22:10:18;;;;;;;5.68;3.08;;;4.40;99.90;;;;;;8324499;28;20495;-64
2021/03/27 22:14:40;;;;;;;7.97;3.97;;;4.60;99.90;;;;;;8325139;28;20574;-64
2021/03/27 22:19:20;;;;;;;6.65;3.58;;;4.70;99.90;;;;;;8323339;28;20057;-64
2021/03/27 22:23:59;;;;;;;6.32;3.42;;;4.70;99.90;;;;;;8319662;28;20116;-64
2021/03/27 22:28:24;;;;;;;7.15;3.67;;;4.60;99.90;;;;;;8346176;28;20415;-65
2021/03/27 22:32:28;;;;;;;5.47;2.75;;;4.50;99.90;;;;;;8340508;28;20105;-64
2021/03/27 22:37:15;;;;;;;1.80;1.40;;;4.50;99.90;;;;;;8326616;28;20030;-64
2021/03/27 22:41:21;;;;;;;2.22;1.10;;;4.80;99.90;;;;;;8335893;28;20021;-65
2021/03/27 22:45:23;;;;;;;2.65;1.17;;;5.30;99.90;;;;;;8329906;28;20487;-64
2021/03/27 22:49:48;;;;;;;2.78;1.25;;;5.50;99.90;;;;;;8326198;28;20029;-64